Time;durP1;ratioP1;P1;durP2;ratioP2;P2;SDS_P1;SDS_P2;PMS_P1;PMS_P2;Temp;Humidity;BMP_temperature;BMP_pressure;BME280_temperature;BME280_humidity;BME280_pressure;Samples;Min_cycle;Max_cycle;Signal;HPM_P1;HPM_P2
2021/11/19 00:01:19;;;;;;;20.98;12.98;;;3.10;86.90;;;;;;5073415;28;20533;-78
2021/11/19 00:03:46;;;;;;;27.23;14.38;;;3.00;86.60;;;;;;5072086;28;20461;-79
2021/11/19 00:06:13;;;;;;;20.88;12.85;;;3.10;86.70;;;;;;5073250;28;20036;-79
2021/11/19 00:08:39;;;;;;;19.85;12.40;;;3.10;87.00;;;;;;5072124;28;20373;-79
2021/11/19 00:11:08;;;;;;;22.70;14.20;;;3.00;86.90;;;;;;5079195;28;20079;-79
2021/11/19 00:13:33;;;;;;;22.55;12.02;;;3.10;87.10;;;;;;5097482;28;20004;-79
2021/11/19 00:15:59;;;;;;;16.27;10.98;;;2.90;86.20;;;;;;5097782;28;20021;-78
2021/11/19 00:18:25;;;;;;;19.45;12.32;;;2.80;86.30;;;;;;5097255;28;20009;-78
2021/11/19 00:20:52;;;;;;;21.75;12.63;;;2.80;86.60;;;;;;5098520;28;20072;-78
2021/11/19 00:23:18;;;;;;;22.27;11.93;;;2.90;87.00;;;;;;5098252;28;20029;-78
2021/11/19 00:25:45;;;;;;;20.98;12.00;;;2.90;86.70;;;;;;5098102;28;20055;-77
2021/11/19 00:28:11;;;;;;;20.15;12.00;;;2.90;86.80;;;;;;5080060;28;20036;-78
2021/11/19 00:30:39;;;;;;;18.15;11.57;;;2.90;86.90;;;;;;5080076;28;20032;-78
2021/11/19 00:33:05;;;;;;;19.80;12.10;;;2.90;86.90;;;;;;5094161;28;20024;-78
2021/11/19 00:35:32;;;;;;;18.05;10.82;;;3.00;86.70;;;;;;5096444;28;20044;-78
2021/11/19 00:37:59;;;;;;;18.00;11.27;;;3.00;86.60;;;;;;5092727;28;20024;-78
2021/11/19 00:40:35;;;;;;;16.73;11.15;;;3.00;86.50;;;;;;5076428;28;20047;-78
2021/11/19 00:43:00;;;;;;;17.40;10.68;;;3.00;86.50;;;;;;5074122;28;20024;-78
2021/11/19 00:45:27;;;;;;;16.80;10.77;;;3.00;86.30;;;;;;5075949;28;20074;-78
2021/11/19 00:47:55;;;;;;;16.35;10.43;;;2.90;85.50;;;;;;5073932;28;20025;-78
2021/11/19 00:50:25;;;;;;;20.35;11.05;;;2.90;85.50;;;;;;5073095;28;20037;-78
2021/11/19 00:52:51;;;;;;;15.90;10.57;;;2.90;85.30;;;;;;5073241;28;20028;-80
2021/11/19 00:55:16;;;;;;;17.90;10.50;;;2.90;85.30;;;;;;5072956;28;20096;-78
2021/11/19 00:57:42;;;;;;;16.77;11.00;;;3.00;85.50;;;;;;5072892;28;20408;-79
2021/11/19 01:00:12;;;;;;;18.08;10.90;;;3.00;85.00;;;;;;5072681;28;20024;-79
2021/11/19 01:02:37;;;;;;;15.93;10.10;;;2.90;83.30;;;;;;5072229;28;20025;-78
2021/11/19 01:05:03;;;;;;;18.25;11.73;;;2.80;83.40;;;;;;5072226;28;20028;-78
2021/11/19 01:07:29;;;;;;;15.77;9.95;;;2.80;83.70;;;;;;5071189;28;20033;-79
2021/11/19 01:09:58;;;;;;;16.20;9.95;;;2.70;84.60;;;;;;5070839;28;20027;-78
2021/11/19 01:12:27;;;;;;;16.35;9.63;;;2.60;85.30;;;;;;5072532;28;20051;-79
2021/11/19 01:15:28;;;;;;;13.50;9.32;;;2.60;85.70;;;;;;5072539;28;20025;-78
2021/11/19 01:18:16;;;;;;;15.85;9.82;;;2.60;86.10;;;;;;5072281;28;20029;-79
2021/11/19 01:21:22;;;;;;;15.30;9.60;;;2.60;86.20;;;;;;5072333;28;20476;-79
2021/11/19 01:23:48;;;;;;;16.95;10.02;;;2.60;86.10;;;;;;5072308;28;20041;-79
2021/11/19 01:26:20;;;;;;;18.27;10.68;;;2.70;86.00;;;;;;5072246;28;20021;-79
2021/11/19 01:28:49;;;;;;;17.75;11.13;;;2.60;86.00;;;;;;5073089;28;20025;-80
2021/11/19 01:31:18;;;;;;;18.05;10.43;;;2.60;86.10;;;;;;5075979;28;20040;-80
2021/11/19 01:33:44;;;;;;;18.10;10.60;;;2.60;86.10;;;;;;5075804;28;20024;-80
2021/11/19 01:36:12;;;;;;;18.40;10.40;;;2.60;86.40;;;;;;5074510;28;20503;-80
2021/11/19 01:38:40;;;;;;;16.50;9.95;;;2.50;86.90;;;;;;5075470;28;20103;-80
2021/11/19 01:41:12;;;;;;;16.27;9.68;;;2.50;87.30;;;;;;5075737;28;20020;-79
2021/11/19 01:43:39;;;;;;;14.48;9.38;;;2.40;87.70;;;;;;5074568;28;20469;-80
2021/11/19 01:46:08;;;;;;;17.95;9.95;;;2.40;88.70;;;;;;5074118;28;20059;-79
2021/11/19 01:48:41;;;;;;;20.02;10.10;;;2.40;87.90;;;;;;5075437;28;20044;-79
2021/11/19 01:51:29;;;;;;;17.65;9.45;;;2.40;87.90;;;;;;5075479;28;20366;-79
2021/11/19 01:54:09;;;;;;;16.25;8.80;;;2.20;87.10;;;;;;5075532;28;20051;-79
2021/11/19 01:56:43;;;;;;;13.38;7.93;;;2.10;87.10;;;;;;5075575;28;20028;-80
2021/11/19 01:59:08;;;;;;;17.02;10.05;;;2.20;87.30;;;;;;5075550;28;20021;-80
2021/11/19 02:01:42;;;;;;;19.50;10.85;;;2.20;87.60;;;;;;5075472;28;20047;-80
2021/11/19 02:04:12;;;;;;;20.35;11.10;;;2.20;87.70;;;;;;5075352;28;20111;-80
2021/11/19 02:06:44;;;;;;;20.45;11.65;;;2.20;87.70;;;;;;5075512;28;20464;-80
2021/11/19 02:09:19;;;;;;;21.58;12.43;;;2.30;88.00;;;;;;5075201;28;20024;-79
2021/11/19 02:11:59;;;;;;;22.15;11.30;;;2.30;87.80;;;;;;5075427;28;20033;-79
2021/11/19 02:14:36;;;;;;;21.42;11.23;;;2.20;87.70;;;;;;5075060;28;20115;-79
2021/11/19 02:17:04;;;;;;;21.23;12.48;;;2.20;87.70;;;;;;5075085;28;20055;-78
2021/11/19 02:19:34;;;;;;;20.05;11.70;;;2.30;87.90;;;;;;5075013;28;20056;-78
2021/11/19 02:22:16;;;;;;;22.30;11.80;;;2.30;87.80;;;;;;5075121;28;20023;-79
2021/11/19 02:24:53;;;;;;;19.33;11.65;;;2.30;88.20;;;;;;5074967;28;20030;-80
2021/11/19 02:27:25;;;;;;;19.48;11.35;;;2.30;88.10;;;;;;5074732;28;20107;-79
2021/11/19 02:30:04;;;;;;;20.63;11.07;;;2.30;88.00;;;;;;5074915;28;20358;-79
2021/11/19 02:32:39;;;;;;;18.13;9.65;;;2.40;88.00;;;;;;5074815;28;20024;-78
2021/11/19 02:35:09;;;;;;;16.90;10.55;;;2.40;87.80;;;;;;5074735;28;20074;-79
2021/11/19 02:37:42;;;;;;;19.10;10.63;;;2.40;87.80;;;;;;5074695;28;20028;-79
2021/11/19 02:40:15;;;;;;;19.77;11.07;;;2.40;87.70;;;;;;5073624;28;20025;-78
2021/11/19 02:42:47;;;;;;;20.02;11.07;;;2.30;87.60;;;;;;5074702;28;20020;-78
2021/11/19 02:45:19;;;;;;;18.05;11.65;;;2.30;87.50;;;;;;5073265;28;20036;-78
2021/11/19 02:47:45;;;;;;;16.80;10.05;;;2.20;87.30;;;;;;5074306;28;20504;-78
2021/11/19 02:50:12;;;;;;;14.35;8.85;;;2.10;87.10;;;;;;5073941;28;20115;-79
2021/11/19 02:52:41;;;;;;;17.15;8.73;;;2.10;87.50;;;;;;5074237;28;20033;-80
2021/11/19 02:55:11;;;;;;;21.30;10.38;;;2.10;88.50;;;;;;5072603;28;20507;-78
2021/11/19 02:57:36;;;;;;;20.27;10.27;;;2.00;87.70;;;;;;5074372;28;20025;-78
2021/11/19 03:00:10;;;;;;;16.77;10.07;;;2.10;88.00;;;;;;5074091;28;20021;-78
2021/11/19 03:02:36;;;;;;;15.80;9.75;;;2.10;88.20;;;;;;5074226;28;20049;-78
2021/11/19 03:05:06;;;;;;;15.40;9.57;;;2.10;88.50;;;;;;5074117;28;20029;-78
2021/11/19 03:07:31;;;;;;;16.30;9.70;;;2.10;88.50;;;;;;5073893;28;20027;-78
2021/11/19 03:10:03;;;;;;;17.35;9.70;;;2.20;88.30;;;;;;5073704;28;20024;-78
2021/11/19 03:12:32;;;;;;;14.85;8.80;;;2.20;88.30;;;;;;5074131;28;20456;-78
2021/11/19 03:15:02;;;;;;;14.80;9.07;;;2.20;88.40;;;;;;5074045;28;20052;-78
2021/11/19 03:17:28;;;;;;;14.60;7.88;;;2.20;88.40;;;;;;5072615;28;20024;-78
2021/11/19 03:19:55;;;;;;;13.35;8.25;;;2.20;88.00;;;;;;5073895;28;20024;-78
2021/11/19 03:22:24;;;;;;;12.45;7.55;;;2.10;87.90;;;;;;5073849;28;20020;-78
2021/11/19 03:24:50;;;;;;;12.63;7.57;;;2.00;87.80;;;;;;5073679;28;20104;-79
2021/11/19 03:27:16;;;;;;;12.95;7.90;;;2.00;88.10;;;;;;5073439;28;20100;-79
2021/11/19 03:29:43;;;;;;;13.10;7.60;;;2.10;88.50;;;;;;5072294;28;20029;-78
2021/11/19 03:32:12;;;;;;;14.27;7.95;;;2.10;88.50;;;;;;5073612;28;20029;-78
2021/11/19 03:34:38;;;;;;;17.20;8.05;;;2.20;88.30;;;;;;5073501;28;20023;-78
2021/11/19 03:37:04;;;;;;;12.35;8.15;;;2.20;87.70;;;;;;5073379;28;20029;-79
2021/11/19 03:39:31;;;;;;;12.27;7.75;;;2.30;87.70;;;;;;5073467;28;20426;-78
2021/11/19 03:41:58;;;;;;;14.90;8.00;;;2.30;87.90;;;;;;5073490;28;20020;-79
2021/11/19 03:44:27;;;;;;;13.05;7.13;;;2.30;88.20;;;;;;5073310;28;20028;-79
2021/11/19 03:47:10;;;;;;;11.45;7.22;;;2.20;88.10;;;;;;5073234;28;20025;-79
2021/11/19 03:49:37;;;;;;;11.90;6.93;;;2.30;88.20;;;;;;5071863;28;20139;-78
2021/11/19 03:52:11;;;;;;;11.35;7.20;;;2.30;88.10;;;;;;5072808;28;20047;-78
2021/11/19 03:54:40;;;;;;;15.55;7.60;;;2.30;88.30;;;;;;5073173;28;20039;-78
2021/11/19 03:57:07;;;;;;;12.82;6.90;;;2.30;88.40;;;;;;5071821;28;20376;-78
2021/11/19 03:59:33;;;;;;;13.05;6.38;;;2.30;88.50;;;;;;5072017;28;20051;-78
2021/11/19 04:02:00;;;;;;;10.50;6.10;;;2.30;88.70;;;;;;5072857;28;20503;-78
2021/11/19 04:04:29;;;;;;;9.80;5.95;;;2.40;88.90;;;;;;5073132;28;20032;-78
2021/11/19 04:06:57;;;;;;;12.43;6.78;;;2.40;88.90;;;;;;5073070;28;20024;-79
2021/11/19 04:09:23;;;;;;;9.80;5.90;;;2.50;88.80;;;;;;5072871;28;20100;-79
2021/11/19 04:11:49;;;;;;;12.02;6.38;;;2.50;88.50;;;;;;5073046;28;20545;-79
2021/11/19 04:14:15;;;;;;;12.13;6.38;;;2.50;88.20;;;;;;5071820;28;20362;-79
2021/11/19 04:16:47;;;;;;;12.13;5.95;;;2.50;88.00;;;;;;5073143;28;20071;-79
2021/11/19 04:19:15;;;;;;;12.48;6.93;;;2.50;87.20;;;;;;5072805;28;20470;-79
2021/11/19 04:21:42;;;;;;;13.15;7.13;;;2.40;86.70;;;;;;5072820;28;20016;-79
2021/11/19 04:24:10;;;;;;;15.40;7.35;;;2.30;86.80;;;;;;5072753;28;20027;-78
2021/11/19 04:26:36;;;;;;;12.23;6.15;;;2.30;86.80;;;;;;5072897;28;20024;-79
2021/11/19 04:29:05;;;;;;;11.40;6.57;;;2.20;86.60;;;;;;5072797;28;20372;-79
2021/11/19 04:31:31;;;;;;;12.60;6.65;;;2.20;86.70;;;;;;5072880;28;20028;-78
2021/11/19 04:33:57;;;;;;;10.63;6.32;;;2.20;86.80;;;;;;5072855;28;20029;-79
2021/11/19 04:36:23;;;;;;;13.23;7.32;;;2.20;86.90;;;;;;5072446;28;20039;-79
2021/11/19 04:38:49;;;;;;;17.25;6.97;;;2.20;86.80;;;;;;5072432;28;20509;-80
2021/11/19 04:41:16;;;;;;;18.00;6.90;;;2.20;87.10;;;;;;5071689;28;20096;-80
2021/11/19 04:43:42;;;;;;;13.65;6.43;;;2.00;87.20;;;;;;5072888;28;20023;-79
2021/11/19 04:46:08;;;;;;;11.18;7.05;;;2.00;87.80;;;;;;5072817;28;20499;-79
2021/11/19 04:48:36;;;;;;;11.95;6.78;;;2.00;88.80;;;;;;5072622;28;20045;-79
2021/11/19 04:51:12;;;;;;;14.90;6.38;;;2.00;88.70;;;;;;5072566;28;20036;-79
2021/11/19 04:53:38;;;;;;;15.27;6.55;;;2.00;89.00;;;;;;5071549;28;20025;-80
2021/11/19 04:56:05;;;;;;;15.40;6.70;;;2.00;89.60;;;;;;5072638;28;20040;-79
2021/11/19 04:58:32;;;;;;;13.77;7.07;;;2.00;89.90;;;;;;5072618;28;20029;-80
2021/11/19 05:01:03;;;;;;;15.05;6.93;;;2.10;89.80;;;;;;5072526;28;20082;-80
2021/11/19 05:03:29;;;;;;;12.02;6.55;;;2.10;89.60;;;;;;5073207;28;20099;-79
2021/11/19 05:05:55;;;;;;;13.43;6.93;;;2.20;89.40;;;;;;5076519;28;20056;-79
2021/11/19 05:08:21;;;;;;;11.10;6.20;;;2.20;90.00;;;;;;5076369;28;20024;-80
2021/11/19 05:10:49;;;;;;;10.32;6.05;;;2.20;89.10;;;;;;5076198;28;20037;-78
2021/11/19 05:13:17;;;;;;;13.07;6.43;;;2.20;88.90;;;;;;5076047;28;20024;-79
2021/11/19 05:15:45;;;;;;;11.68;6.30;;;2.20;88.20;;;;;;5076115;28;20023;-79
2021/11/19 05:18:11;;;;;;;15.20;5.90;;;2.10;87.70;;;;;;5076030;28;20027;-79
2021/11/19 05:20:37;;;;;;;12.52;7.07;;;2.10;88.10;;;;;;5076144;28;20107;-78
2021/11/19 05:23:05;;;;;;;17.67;8.30;;;2.10;88.40;;;;;;5074732;28;20021;-80
2021/11/19 05:25:32;;;;;;;15.43;8.52;;;2.00;88.50;;;;;;5075822;28;20021;-79
2021/11/19 05:27:59;;;;;;;17.75;7.55;;;2.00;89.00;;;;;;5075915;28;20027;-78
2021/11/19 05:30:25;;;;;;;15.90;7.05;;;2.10;89.30;;;;;;5075476;28;20033;-79
2021/11/19 05:32:51;;;;;;;16.02;7.60;;;2.10;88.90;;;;;;5076019;28;20031;-79
2021/11/19 05:35:19;;;;;;;11.25;6.72;;;2.10;88.30;;;;;;5074384;28;20074;-80
2021/11/19 05:37:44;;;;;;;14.07;7.45;;;2.10;88.40;;;;;;5075681;28;20443;-79
2021/11/19 05:40:14;;;;;;;14.45;7.13;;;2.10;88.10;;;;;;5075639;28;20025;-80
2021/11/19 05:42:40;;;;;;;13.85;7.25;;;2.10;88.20;;;;;;5075782;28;20025;-80
2021/11/19 05:45:07;;;;;;;17.27;7.78;;;2.10;88.60;;;;;;5075740;28;20483;-80
2021/11/19 05:47:34;;;;;;;13.52;7.55;;;2.10;88.60;;;;;;5074183;28;20044;-80
2021/11/19 05:50:00;;;;;;;13.30;7.35;;;2.10;88.50;;;;;;5075360;28;20041;-79
2021/11/19 05:52:29;;;;;;;17.50;8.10;;;2.10;88.40;;;;;;5075452;28;20028;-79
2021/11/19 05:54:56;;;;;;;20.17;11.25;;;2.10;88.30;;;;;;5075401;28;20362;-79
2021/11/19 05:57:22;;;;;;;18.23;10.13;;;1.90;87.90;;;;;;5075612;28;20112;-79
2021/11/19 05:59:47;;;;;;;19.73;11.10;;;1.90;88.10;;;;;;5075185;28;20469;-79
2021/11/19 06:02:17;;;;;;;23.98;13.02;;;1.90;88.20;;;;;;5075103;28;20031;-80
2021/11/19 06:04:43;;;;;;;22.83;11.85;;;1.90;88.60;;;;;;5075429;28;20116;-80
2021/11/19 06:07:08;;;;;;;18.63;8.95;;;2.00;88.80;;;;;;5073815;28;20107;-79
2021/11/19 06:09:36;;;;;;;15.82;7.95;;;2.00;89.10;;;;;;5075118;28;20447;-79
2021/11/19 06:12:07;;;;;;;18.70;8.18;;;2.00;88.80;;;;;;5074759;28;20029;-80
2021/11/19 06:14:40;;;;;;;14.93;8.00;;;2.00;88.50;;;;;;5074948;28;20017;-79
2021/11/19 06:17:12;;;;;;;17.80;8.60;;;2.00;88.50;;;;;;5073560;28;20029;-79
2021/11/19 06:19:42;;;;;;;21.75;9.35;;;2.10;88.60;;;;;;5073543;28;20472;-80
2021/11/19 06:22:27;;;;;;;17.50;8.40;;;2.10;88.50;;;;;;5074789;28;20111;-79
2021/11/19 06:24:55;;;;;;;19.55;7.93;;;2.10;88.50;;;;;;5075004;28;20464;-80
2021/11/19 06:27:30;;;;;;;19.70;7.60;;;2.20;88.50;;;;;;5074969;28;20131;-79
2021/11/19 06:29:58;;;;;;;22.50;7.75;;;2.20;88.40;;;;;;5073241;28;20024;-78
2021/11/19 06:32:25;;;;;;;18.92;7.18;;;2.10;88.30;;;;;;5075122;28;20043;-78
2021/11/19 06:34:51;;;;;;;17.70;6.60;;;2.10;88.20;;;;;;5074648;28;20020;-78
2021/11/19 06:37:18;;;;;;;13.63;6.53;;;2.10;88.30;;;;;;5074778;28;20090;-79
2021/11/19 06:39:44;;;;;;;15.13;6.22;;;2.00;88.60;;;;;;5074505;28;20048;-80
2021/11/19 06:42:11;;;;;;;12.82;6.80;;;2.00;89.20;;;;;;5074406;28;20381;-80
2021/11/19 06:44:38;;;;;;;17.23;7.03;;;2.10;89.50;;;;;;5074492;28;20036;-80
2021/11/19 06:47:05;;;;;;;15.27;6.68;;;2.10;89.50;;;;;;5074316;28;20017;-78
2021/11/19 06:49:31;;;;;;;17.30;8.30;;;2.20;89.10;;;;;;5074008;28;20048;-77
2021/11/19 06:51:56;;;;;;;21.88;8.20;;;2.20;89.10;;;;;;5073877;28;20037;-78
2021/11/19 06:54:22;;;;;;;17.55;9.10;;;2.20;89.10;;;;;;5073815;28;20036;-76
2021/11/19 06:56:48;;;;;;;15.20;7.68;;;2.30;89.00;;;;;;5072834;28;20067;-77
2021/11/19 06:59:14;;;;;;;17.73;7.10;;;2.40;88.80;;;;;;5073838;28;20028;-79
2021/11/19 07:01:40;;;;;;;16.70;7.35;;;2.40;88.90;;;;;;5073972;28;20469;-78
2021/11/19 07:04:06;;;;;;;18.67;7.97;;;2.40;89.00;;;;;;5073941;28;20024;-80
2021/11/19 07:06:33;;;;;;;14.52;7.38;;;2.40;89.10;;;;;;5073896;28;20020;-79
2021/11/19 07:09:00;;;;;;;23.50;7.63;;;2.50;89.40;;;;;;5073800;28;20100;-81
2021/11/19 07:11:26;;;;;;;15.63;6.28;;;2.50;89.10;;;;;;5073766;28;20060;-81
2021/11/19 07:13:53;;;;;;;17.48;8.40;;;2.60;88.90;;;;;;5073788;28;20024;-79
2021/11/19 07:16:21;;;;;;;18.23;7.90;;;2.60;88.70;;;;;;5073623;28;20111;-81
2021/11/19 07:18:47;;;;;;;14.40;6.68;;;2.60;88.80;;;;;;5073985;28;20024;-82
2021/11/19 07:21:13;;;;;;;22.40;7.75;;;2.70;88.50;;;;;;5073520;28;20388;-86
2021/11/19 07:23:39;;;;;;;16.02;7.70;;;2.70;88.50;;;;;;5074341;28;20096;-80
2021/11/19 07:26:05;;;;;;;13.30;6.88;;;2.70;88.20;;;;;;5076841;28;20106;-80
2021/11/19 07:28:31;;;;;;;20.88;7.72;;;2.90;89.80;;;;;;5086760;28;20023;-82
2021/11/19 07:31:01;;;;;;;21.65;8.15;;;2.90;88.00;;;;;;5081626;28;20036;-79
2021/11/19 07:33:27;;;;;;;19.75;8.57;;;2.90;88.20;;;;;;5072568;28;20021;-81
2021/11/19 07:35:55;;;;;;;15.90;7.93;;;2.90;86.90;;;;;;5073519;28;20033;-81
2021/11/19 07:38:22;;;;;;;20.38;7.72;;;2.90;87.10;;;;;;5073732;28;20019;-81
2021/11/19 07:40:49;;;;;;;22.55;8.02;;;3.00;87.00;;;;;;5072035;28;20029;-81
2021/11/19 07:43:16;;;;;;;17.77;8.13;;;3.00;87.20;;;;;;5073488;28;20028;-81
2021/11/19 07:45:43;;;;;;;23.35;10.32;;;3.20;86.70;;;;;;5072176;28;20075;-81
2021/11/19 07:48:16;;;;;;;20.73;9.10;;;3.10;85.60;;;;;;5072995;28;20021;-81
2021/11/19 07:50:49;;;;;;;22.02;10.65;;;3.20;85.70;;;;;;5073310;28;20025;-80
2021/11/19 07:53:17;;;;;;;26.73;11.27;;;3.20;85.20;;;;;;5073228;28;20043;-81
2021/11/19 07:55:46;;;;;;;20.88;10.27;;;3.20;85.30;;;;;;5074231;28;20025;-81
2021/11/19 07:58:12;;;;;;;26.65;9.55;;;3.20;85.40;;;;;;5073115;28;20020;-81
2021/11/19 08:00:41;;;;;;;18.80;8.48;;;3.30;85.30;;;;;;5073125;28;20029;-82
2021/11/19 08:03:07;;;;;;;23.80;7.85;;;3.40;85.20;;;;;;5073260;28;20024;-81
2021/11/19 08:05:32;;;;;;;28.90;8.50;;;3.40;85.00;;;;;;5073098;28;20381;-82
2021/11/19 08:07:59;;;;;;;19.42;8.00;;;3.50;84.70;;;;;;5072931;28;20509;-81
2021/11/19 08:10:25;;;;;;;26.52;7.57;;;3.60;84.60;;;;;;5072706;28;20032;-81
2021/11/19 08:12:51;;;;;;;20.25;7.70;;;3.70;84.60;;;;;;5073037;28;20024;-81
2021/11/19 08:15:20;;;;;;;16.75;7.47;;;3.80;84.30;;;;;;5072905;28;20020;-81
2021/11/19 08:17:49;;;;;;;19.35;7.35;;;3.90;84.10;;;;;;5072610;28;20024;-82
2021/11/19 08:20:24;;;;;;;12.75;6.85;;;4.00;83.80;;;;;;5127127;22;20052;-80
2021/11/19 08:22:50;;;;;;;22.27;7.15;;;4.00;83.70;;;;;;5070887;28;20497;-80
2021/11/19 08:25:17;;;;;;;16.33;6.72;;;4.10;83.60;;;;;;5071912;28;20052;-79
2021/11/19 08:27:49;;;;;;;19.02;6.93;;;4.30;83.30;;;;;;5071973;28;20031;-79
2021/11/19 08:30:31;;;;;;;16.90;7.50;;;4.50;82.80;;;;;;5071923;28;20020;-80
2021/11/19 08:32:58;;;;;;;14.13;7.82;;;4.60;81.80;;;;;;5071921;28;20017;-80
2021/11/19 08:35:24;;;;;;;17.92;8.77;;;4.70;80.80;;;;;;5071781;28;20083;-80
2021/11/19 08:37:51;;;;;;;14.52;6.95;;;4.80;80.50;;;;;;5071691;28;20025;-81
2021/11/19 08:40:17;;;;;;;17.95;7.70;;;4.80;80.50;;;;;;5074204;28;20445;-80
2021/11/19 08:42:45;;;;;;;14.05;7.35;;;5.00;80.20;;;;;;5074273;28;20043;-80
2021/11/19 08:45:12;;;;;;;15.30;7.85;;;5.30;80.30;;;;;;5075404;28;20024;-81
2021/11/19 08:47:38;;;;;;;15.05;7.05;;;5.60;79.80;;;;;;5074218;28;20021;-81
2021/11/19 08:50:07;;;;;;;16.13;7.15;;;5.80;78.00;;;;;;5075149;28;20024;-81
2021/11/19 08:52:33;;;;;;;14.52;6.93;;;6.10;77.70;;;;;;5075248;28;20024;-81
2021/11/19 08:55:01;;;;;;;18.40;7.78;;;6.50;76.20;;;;;;5075052;28;20024;-80
2021/11/19 08:57:26;;;;;;;16.58;7.90;;;6.70;73.80;;;;;;5076224;28;20121;-79
2021/11/19 08:59:53;;;;;;;22.48;9.00;;;7.00;73.20;;;;;;5075310;28;20561;-82
2021/11/19 09:02:23;;;;;;;24.77;8.93;;;7.20;73.00;;;;;;5074975;28;20051;-83
2021/11/19 09:04:49;;;;;;;19.33;8.75;;;7.60;72.50;;;;;;5073724;28;20025;-80
2021/11/19 09:07:16;;;;;;;22.73;9.00;;;7.90;71.40;;;;;;5073536;28;20032;-80
2021/11/19 09:09:44;;;;;;;19.65;8.55;;;8.20;70.40;;;;;;5074385;28;20028;-79
2021/11/19 09:12:10;;;;;;;17.52;8.15;;;8.30;69.30;;;;;;5074643;28;20028;-80
2021/11/19 09:14:36;;;;;;;17.83;8.05;;;8.40;68.70;;;;;;5075510;28;20112;-81
2021/11/19 09:17:24;;;;;;;16.83;8.18;;;8.50;67.50;;;;;;5073627;28;20115;-82
2021/11/19 09:20:22;;;;;;;17.48;7.78;;;8.40;67.30;;;;;;5036784;28;1080283;-83
2021/11/19 09:23:03;;;;;;;16.90;7.57;;;8.40;68.50;;;;;;5088288;28;20036;-80
2021/11/19 09:25:29;;;;;;;14.75;6.65;;;8.50;68.10;;;;;;5095988;28;20025;-81
2021/11/19 09:27:55;;;;;;;16.83;7.00;;;8.90;67.90;;;;;;5077364;28;20489;-83
2021/11/19 09:30:26;;;;;;;13.70;7.10;;;9.10;67.10;;;;;;5075753;28;20028;-80
2021/11/19 09:32:54;;;;;;;16.20;5.30;;;9.40;65.70;;;;;;5074467;28;20024;-80
2021/11/19 09:35:24;;;;;;;17.58;5.53;;;9.60;77.10;;;;;;5075425;28;20098;-81
2021/11/19 09:37:52;;;;;;;13.75;5.65;;;10.20;75.20;;;;;;5075695;28;20024;-79
2021/11/19 09:40:21;;;;;;;13.95;5.82;;;10.90;72.30;;;;;;5073951;28;20032;-79
2021/11/19 09:43:12;;;;;;;8.48;4.88;;;11.50;66.60;;;;;;5075355;28;20065;-80
2021/11/19 09:45:49;;;;;;;16.15;5.55;;;12.10;61.60;;;;;;5073994;28;20025;-80
2021/11/19 09:48:31;;;;;;;9.80;4.90;;;12.50;59.10;;;;;;5075534;28;20370;-80
2021/11/19 09:51:21;;;;;;;12.18;5.03;;;12.80;56.70;;;;;;5073527;28;20025;-80
2021/11/19 09:54:08;;;;;;;9.75;5.00;;;13.00;55.20;;;;;;5074171;28;20058;-80
2021/11/19 09:56:54;;;;;;;15.35;5.07;;;13.00;52.80;;;;;;5075013;28;20078;-78
2021/11/19 09:59:46;;;;;;;8.02;4.15;;;12.90;52.20;;;;;;5073663;28;20481;-80
2021/11/19 10:02:48;;;;;;;9.85;5.10;;;12.90;51.30;;;;;;5074860;28;20035;-79
2021/11/19 10:05:29;;;;;;;13.30;5.15;;;12.70;51.10;;;;;;5074681;28;20021;-80
2021/11/19 10:08:01;;;;;;;12.02;4.82;;;12.50;51.50;;;;;;5074988;28;20024;-79
2021/11/19 10:10:32;;;;;;;9.15;4.45;;;12.20;52.20;;;;;;5074872;28;20024;-80
2021/11/19 10:13:21;;;;;;;12.68;5.00;;;12.20;53.00;;;;;;5074874;28;20412;-80
2021/11/19 10:16:04;;;;;;;15.48;5.40;;;12.20;52.80;;;;;;5074759;28;20518;-80
2021/11/19 10:18:51;;;;;;;7.25;4.20;;;11.70;53.80;;;;;;5074878;28;20112;-79
2021/11/19 10:21:28;;;;;;;12.68;4.03;;;11.90;54.00;;;;;;5074401;28;20124;-80
2021/11/19 10:23:58;;;;;;;8.50;3.72;;;12.30;53.50;;;;;;5074219;28;20035;-79
2021/11/19 10:26:34;;;;;;;14.10;4.28;;;12.70;52.30;;;;;;5074561;28;20052;-80
2021/11/19 10:29:09;;;;;;;10.32;4.00;;;13.10;50.90;;;;;;5074675;28;20422;-79
2021/11/19 10:31:35;;;;;;;9.32;3.75;;;13.30;49.50;;;;;;5074715;28;20032;-79
2021/11/19 10:34:29;;;;;;;12.95;4.10;;;13.60;48.90;;;;;;5074669;28;20074;-80
2021/11/19 10:37:00;;;;;;;10.57;4.07;;;14.00;47.80;;;;;;5074480;28;20029;-80
2021/11/19 10:39:32;;;;;;;8.32;4.00;;;14.20;46.20;;;;;;5074236;28;20029;-79
2021/11/19 10:42:23;;;;;;;11.18;4.13;;;14.30;45.70;;;;;;5074544;28;20108;-79
2021/11/19 10:45:22;;;;;;;9.90;4.28;;;14.40;45.40;;;;;;5050812;28;20032;-80
2021/11/19 10:48:06;;;;;;;8.18;3.88;;;14.70;44.40;;;;;;5074590;28;20021;-80
2021/11/19 10:51:05;;;;;;;9.35;4.05;;;15.00;43.10;;;;;;5074594;28;20036;-80
2021/11/19 10:53:36;;;;;;;9.57;3.92;;;15.20;43.10;;;;;;5074886;28;20024;-81
2021/11/19 10:56:19;;;;;;;6.97;3.03;;;15.30;41.40;;;;;;5093804;28;20017;-80
2021/11/19 10:58:57;;;;;;;10.90;3.92;;;15.60;40.80;;;;;;5098152;28;20048;-80
2021/11/19 11:01:46;;;;;;;8.30;3.42;;;16.10;40.40;;;;;;5097597;28;20041;-81
2021/11/19 11:04:14;;;;;;;9.00;3.63;;;16.20;39.20;;;;;;5097397;28;20040;-81
2021/11/19 11:07:08;;;;;;;10.35;3.70;;;16.30;39.10;;;;;;5096638;28;20338;-82
2021/11/19 11:09:57;;;;;;;11.80;3.78;;;16.50;38.80;;;;;;5095801;28;20036;-81
2021/11/19 11:12:23;;;;;;;7.90;3.38;;;16.60;38.10;;;;;;5093677;28;20023;-81
2021/11/19 11:15:01;;;;;;;10.13;3.60;;;16.90;37.40;;;;;;5093453;28;20028;-79
2021/11/19 11:17:30;;;;;;;6.13;2.78;;;17.20;37.10;;;;;;5088309;28;20028;-81
2021/11/19 11:19:59;;;;;;;8.52;3.28;;;17.30;35.00;;;;;;5088644;28;20040;-82
2021/11/19 11:22:28;;;;;;;5.15;2.60;;;17.50;35.00;;;;;;5093059;28;20021;-79
2021/11/19 11:25:20;;;;;;;7.28;3.22;;;17.80;33.90;;;;;;5091762;28;20025;-79
2021/11/19 11:28:03;;;;;;;8.20;3.13;;;18.00;33.40;;;;;;5080547;28;20017;-80
2021/11/19 11:30:48;;;;;;;6.63;3.30;;;18.10;33.50;;;;;;5074801;28;20029;-81
2021/11/19 11:33:22;;;;;;;9.50;3.47;;;18.30;33.90;;;;;;5073909;28;20115;-81
2021/11/19 11:36:17;;;;;;;7.60;3.72;;;18.40;33.40;;;;;;5075770;28;20107;-81
2021/11/19 11:39:17;;;;;;;6.47;2.67;;;18.60;33.30;;;;;;5072257;28;20032;-80
2021/11/19 11:41:46;;;;;;;7.05;2.28;;;18.60;32.20;;;;;;5083511;28;20034;-81
2021/11/19 11:44:24;;;;;;;6.72;3.10;;;19.00;32.20;;;;;;5081037;28;20032;-82
2021/11/19 11:47:05;;;;;;;5.82;2.28;;;19.00;31.70;;;;;;5074194;28;20016;-81
2021/11/19 11:49:30;;;;;;;9.13;2.88;;;19.40;31.50;;;;;;5073821;28;20115;-80
2021/11/19 11:52:01;;;;;;;6.90;2.53;;;19.70;30.60;;;;;;5074297;28;20068;-80
2021/11/19 11:54:33;;;;;;;6.72;2.38;;;19.80;30.20;;;;;;5072197;28;20024;-80
2021/11/19 11:57:31;;;;;;;5.72;1.58;;;19.40;30.20;;;;;;5073454;28;20032;-80
2021/11/19 12:00:14;;;;;;;8.60;2.13;;;19.10;31.10;;;;;;5073377;28;20016;-81
2021/11/19 12:02:56;;;;;;;5.25;2.03;;;19.10;30.90;;;;;;5073868;28;20093;-83
2021/11/19 12:05:44;;;;;;;8.63;2.17;;;19.70;30.90;;;;;;5073089;28;20107;-81
2021/11/19 12:08:38;;;;;;;5.22;1.90;;;20.70;29.60;;;;;;5072940;28;20078;-82
2021/11/19 12:11:43;;;;;;;6.28;1.80;;;22.00;27.70;;;;;;5073356;28;20037;-82
2021/11/19 12:14:12;;;;;;;5.80;1.75;;;23.40;24.50;;;;;;5072888;28;20031;-84
2021/11/19 12:17:00;;;;;;;4.82;1.73;;;24.30;22.70;;;;;;5073368;28;20485;-83
2021/11/19 12:19:54;;;;;;;4.47;1.70;;;25.10;20.90;;;;;;5072874;28;20382;-81
2021/11/19 12:22:44;;;;;;;4.13;1.20;;;23.70;20.60;;;;;;5073274;28;20073;-83
2021/11/19 12:25:36;;;;;;;3.03;1.38;;;24.20;20.00;;;;;;5073203;28;20025;-82
2021/11/19 12:28:08;;;;;;;7.38;1.50;;;24.00;20.30;;;;;;5072874;28;20035;-80
2021/11/19 12:30:54;;;;;;;7.50;1.42;;;24.90;19.70;;;;;;5072814;28;20389;-79
2021/11/19 12:33:25;;;;;;;4.57;1.55;;;26.50;18.70;;;;;;5073346;28;20028;-83
2021/11/19 12:36:03;;;;;;;5.85;1.70;;;27.70;17.50;;;;;;5073149;28;20074;-81
2021/11/19 12:38:35;;;;;;;3.90;1.70;;;28.60;15.90;;;;;;5066672;28;20032;-79
2021/11/19 12:41:23;;;;;;;5.40;1.60;;;28.80;14.90;;;;;;5075100;28;20100;-79
2021/11/19 12:44:16;;;;;;;4.22;1.63;;;28.50;15.60;;;;;;5073710;28;20056;-80
2021/11/19 12:47:14;;;;;;;4.45;2.05;;;30.20;14.90;;;;;;5072588;28;20078;-79
2021/11/19 12:50:08;;;;;;;3.10;1.58;;;31.10;13.90;;;;;;5073112;28;20025;-84
2021/11/19 12:52:48;;;;;;;4.65;1.40;;;31.20;13.10;;;;;;5072972;28;20032;-81
2021/11/19 12:55:35;;;;;;;4.13;1.73;;;30.90;12.30;;;;;;5074989;28;20096;-79
2021/11/19 12:58:19;;;;;;;3.65;1.60;;;30.60;12.20;;;;;;5095391;28;20024;-79
2021/11/19 13:01:08;;;;;;;2.97;1.42;;;30.20;13.00;;;;;;5079026;28;20021;-78
2021/11/19 13:03:50;;;;;;;4.00;1.80;;;31.20;12.90;;;;;;5073965;28;20147;-81
2021/11/19 13:06:26;;;;;;;5.85;1.83;;;32.10;12.20;;;;;;5072945;28;20046;-79
2021/11/19 13:09:06;;;;;;;5.15;1.60;;;32.30;11.40;;;;;;5072722;28;20027;-79